Welcome to Northern Hawkes Bay. New Zealand.
PWS Header
      nz Flag



Hit Counter


W3C Valid W3C Valid logo


    Wairoa

Select any of the Stations below to visit their websites.










Historic Data from Weather Underground
Select the location of interest below. Wairoa is the default. Please have patience, this Data is slow to load in.
Northern Hawkes Bay Historical Data
Daily Summary for July 14, 2017 Units:  English    Metric   Both
« Previous Day
Next Day »
Daily Weekly Monthly Yearly Custom
  High: Low: Average:
Temperature: 53.2 °F 44.1 °F 50.2 °F
Dew Point: 50.2 °F 42.6 °F 46.6 °F
Humidity: 98% 69% 88%
Wind Speed: 29.8mph 0.7mph 14.5mph
Wind Gust: 49.4mph - -
Wind- - SSW
Pressure: 30 in 29.6 in -
Precipitation: 2.91 in    
Historical Graphs
 
 
Tabular Data for July 14, 2017
Time Temperature Dew Point Pressure Wind Wind Speed Wind Gust Humidity Rainfall Rate (Hourly) solar
00:08 46.4 °F 45.3 °F 29.8 in West 13.6 mph 17.4 mph 96% 0.11 in 0 W/m2
00:13 46.2 °F 45.1 °F 29.8 in WSW 9.2 mph 17.4 mph 96% 0.11 in 0 W/m2
00:18 46.2 °F 45.1 °F 29.8 in West 9.2 mph 17.4 mph 96% 0.11 in 0 W/m2
00:23 46 °F 45 °F 29.8 in West 8.3 mph 15.9 mph 96% 0.09 in 0 W/m2
00:28 46 °F 44.8 °F 29.8 in West 7.6 mph 15.9 mph 95% 0.08 in 0 W/m2
00:33 45.9 °F 44.4 °F 29.8 in West 8.3 mph 15.2 mph 95% 0.06 in 0 W/m2
00:38 45.7 °F 44.2 °F 29.8 in WSW 9.8 mph 15.2 mph 95% 0.05 in 0 W/m2
00:43 45.5 °F 44.2 °F 29.8 in WSW 4.5 mph 15.2 mph 95% 0.02 in 0 W/m2
00:48 45.3 °F 44.1 °F 29.8 in WSW 8.3 mph 15.2 mph 95% 0.02 in 0 W/m2
00:53 45.5 °F 44.4 °F 29.7 in West 9.8 mph 14.5 mph 96% 0.02 in 0 W/m2
00:58 45.3 °F 44.2 °F 29.7 in West 7.6 mph 13.6 mph 96% 0.02 in 0 W/m2
01:03 45.3 °F 44.2 °F 29.7 in WSW 4.5 mph 13.6 mph 96% 0.02 in 0 W/m2
01:08 45.3 °F 44.1 °F 29.8 in West 11.4 mph 13.6 mph 95% 0.02 in 0 W/m2
01:13 45.3 °F 44.1 °F 29.7 in WSW 4.5 mph 13.6 mph 95% 0.02 in 0 W/m2
01:18 45.3 °F 44.1 °F 29.7 in WSW 5.4 mph 11.4 mph 95% 0.02 in 0 W/m2
01:23 45.3 °F 44.1 °F 29.7 in West 6.9 mph 11.4 mph 95% 0.02 in 0 W/m2
01:28 45.3 °F 44.1 °F 29.7 in WNW 3.8 mph 11.4 mph 95% 0.02 in 0 W/m2
01:33 45.3 °F 44.1 °F 29.7 in WNW 4.5 mph 11.4 mph 95% 0.02 in 0 W/m2
01:38 45.3 °F 44.1 °F 29.7 in WNW 1.6 mph 9.8 mph 95% 0.04 in 0 W/m2
01:43 45.3 °F 44.1 °F 29.7 in NW 1.6 mph 6 mph 95% 0.02 in 0 W/m2
01:48 45.1 °F 43.9 °F 29.7 in NW 0.7 mph 4.5 mph 95% 0.02 in 0 W/m2
01:53 44.6 °F 43 °F 29.7 in NNW 3.1 mph 4.5 mph 94% 0.01 in 0 W/m2
01:58 44.2 °F 43 °F 29.7 in NW 1.6 mph 4.5 mph 95% 0.01 in 0 W/m2
02:03 44.2 °F 43 °F 29.7 in NW 1.6 mph 5.4 mph 95% 0.01 in 0 W/m2
02:08 44.1 °F 42.6 °F 29.7 in WNW 0.7 mph 5.4 mph 95% 0.01 in 0 W/m2
02:13 44.1 °F 43 °F 29.7 in NW 1.6 mph 3.8 mph 96% 0.01 in 0 W/m2
02:18 44.2 °F 43.2 °F 29.7 in NNW 2.2 mph 4.5 mph 96% 0.01 in 0 W/m2
02:23 44.4 °F 43.3 °F 29.7 in NW 3.1 mph 4.5 mph 96% 0.01 in 0 W/m2
02:28 44.4 °F 43.3 °F 29.7 in NW 3.1 mph 5.4 mph 96% 0.01 in 0 W/m2
02:33 44.6 °F 43.3 °F 29.7 in NW 2.2 mph 6 mph 95% 0.02 in 0 W/m2
02:38 45 °F 43.9 °F 29.7 in WNW 3.1 mph 6 mph 96% 0.01 in 0 W/m2
02:43 45.1 °F 44.1 °F 29.7 in WNW 2.2 mph 5.4 mph 96% 0.02 in 0 W/m2
02:48 45.1 °F 44.1 °F 29.7 in WNW 2.2 mph 5.4 mph 96% 0.02 in 0 W/m2
02:53 45 °F 43.5 °F 29.7 in NW 2.2 mph 7.6 mph 95% 0.02 in 0 W/m2
02:58 45 °F 43.5 °F 29.7 in WNW 2.2 mph 7.6 mph 95% 0.02 in 0 W/m2
03:03 45.1 °F 43.9 °F 29.7 in West 2.2 mph 5.4 mph 95% 0.02 in 0 W/m2
03:08 45.3 °F 44.2 °F 29.7 in NW 2.2 mph 5.4 mph 96% 0.04 in 0 W/m2
03:13 45 °F 43.5 °F 29.7 in NNE 3.8 mph 7.6 mph 95% 0.04 in 0 W/m2
03:18 45 °F 43.5 °F 29.7 in North 1.6 mph 7.6 mph 95% 0.04 in 0 W/m2
03:23 45 °F 43.5 °F 29.7 in NNW 3.1 mph 10.7 mph 95% 0.05 in 0 W/m2
03:28 45 °F 43.5 °F 29.7 in NW 4.5 mph 10.7 mph 95% 0.05 in 0 W/m2
03:33 45.5 °F 44.4 °F 29.7 in West 5.4 mph 8.3 mph 96% 0.05 in 0 W/m2
03:38 45.7 °F 44.6 °F 29.7 in NW 2.2 mph 8.3 mph 96% 0.04 in 0 W/m2
03:43 47.1 °F 46.2 °F 29.7 in West 6.9 mph 15.9 mph 97% 0.05 in 0 W/m2
03:48 47.8 °F 47.3 °F 29.7 in West 5.4 mph 15.9 mph 98% 0.05 in 0 W/m2
03:53 48 °F 47.1 °F 29.7 in West 3.8 mph 12.1 mph 97% 0.05 in 0 W/m2
03:58 48.2 °F 47.1 °F 29.7 in West 5.4 mph 13 mph 96% 0.05 in 0 W/m2
04:03 48.6 °F 47.5 °F 29.7 in West 6.9 mph 13 mph 96% 0.05 in 0 W/m2
04:08 48.9 °F 47.8 °F 29.7 in WSW 15.2 mph 19.7 mph 96% 0.04 in 0 W/m2
04:13 49.1 °F 48 °F 29.7 in WSW 14.5 mph 19.7 mph 96% 0.04 in 0 W/m2
04:18 49.1 °F 47.7 °F 29.7 in WSW 9.2 mph 18.3 mph 95% 0.04 in 0 W/m2
04:23 49.1 °F 47.7 °F 29.7 in WSW 8.3 mph 17.4 mph 95% 0.04 in 0 W/m2
04:28 49.1 °F 47.7 °F 29.7 in WSW 6.9 mph 16.8 mph 95% 0.04 in 0 W/m2
04:33 49.1 °F 47.7 °F 29.7 in West 9.8 mph 19 mph 95% 0.04 in 0 W/m2
04:38 49.3 °F 47.7 °F 29.7 in WSW 8.3 mph 19 mph 94% 0.04 in 0 W/m2
04:43 49.6 °F 47.7 °F 29.7 in WSW 10.7 mph 26.6 mph 93% 0.02 in 0 W/m2
04:48 49.5 °F 47.1 °F 29.7 in West 13.6 mph 26.6 mph 92% 0.02 in 0 W/m2
04:53 48.9 °F 46.9 °F 29.7 in WNW 7.6 mph 19.7 mph 93% 0.02 in 0 W/m2
04:58 48.9 °F 46.9 °F 29.7 in WNW 13 mph 23.5 mph 93% 0.04 in 0 W/m2
05:03 48.9 °F 47.3 °F 29.7 in West 7.6 mph 23.5 mph 94% 0.04 in 0 W/m2
05:08 48.9 °F 47.3 °F 29.7 in WSW 9.2 mph 22.8 mph 94% 0.04 in 0 W/m2
05:26 49.6 °F 48 °F 29.7 in WSW 9.8 mph 22.1 mph 94% 0.01 in 0 W/m2
05:31 49.8 °F 48.2 °F 29.7 in WSW 19.7 mph 29.8 mph 94% 0.01 in 0 W/m2
05:36 49.8 °F 48.2 °F 29.7 in WSW 15.9 mph 29.8 mph 94% 0.01 in 0 W/m2
05:41 49.3 °F 46.8 °F 29.7 in WSW 15.2 mph 29.8 mph 91% 0.02 in 0 W/m2
05:46 49.5 °F 47.8 °F 29.6 in WSW 12.1 mph 25.1 mph 94% 0.04 in 0 W/m2
05:51 49.3 °F 47.7 °F 29.6 in West 14.5 mph 24.4 mph 94% 0.04 in 0 W/m2
05:56 49.1 °F 47.7 °F 29.7 in WNW 9.8 mph 24.4 mph 95% 0.02 in 0 W/m2
06:01 49.1 °F 48 °F 29.7 in West 13 mph 22.8 mph 96% 0.06 in 0 W/m2
06:06 49.3 °F 48.2 °F 29.7 in SSW 17.4 mph 25.1 mph 96% 0.06 in 0 W/m2
06:11 49.5 °F 48 °F 29.7 in SSW 7.6 mph 25.1 mph 95% 0.06 in 0 W/m2
06:16 49.5 °F 47.8 °F 29.7 in SW 9.2 mph 22.8 mph 94% 0.06 in 0 W/m2
06:21 49.8 °F 48.2 °F 29.7 in SW 1.6 mph 17.4 mph 94% 0.06 in 0 W/m2
06:26 49.8 °F 47.8 °F 29.6 in SSW 7.6 mph 13 mph 93% 0.06 in 0 W/m2
06:31 50.2 °F 47.5 °F 29.7 in South 8.3 mph 12.1 mph 90% 0.07 in 0 W/m2
06:36 50.5 °F 47.5 °F 29.7 in South 9.2 mph 18.3 mph 89% 0.08 in 0 W/m2
06:41 50.7 °F 46.8 °F 29.6 in South 14.5 mph 19.7 mph 86% 0.07 in 0 W/m2
06:46 50.9 °F 46.9 °F 29.6 in South 9.2 mph 19.7 mph 86% 0.07 in 0 W/m2
06:51 51.1 °F 47.7 °F 29.6 in SSW 14.5 mph 19.7 mph 88% 0.08 in 0 W/m2
06:56 51.1 °F 48 °F 29.6 in SSW 9.2 mph 19.7 mph 89% 0.08 in 0 W/m2
07:01 50.7 °F 48.2 °F 29.6 in SSW 11.4 mph 26.6 mph 91% 0.09 in 0 W/m2
07:06 50.7 °F 48.7 °F 29.6 in South 14.5 mph 26.6 mph 93% 0.11 in 0 W/m2
07:11 50.5 °F 48.4 °F 29.6 in South 13 mph 24.4 mph 92% 0.12 in 0 W/m2
07:16 50.9 °F 48 °F 29.6 in South 14.5 mph 28.9 mph 90% 0.12 in 0 W/m2
07:21 51.3 °F 47.8 °F 29.6 in South 17.4 mph 28.9 mph 88% 0.13 in 0 W/m2
07:26 51.3 °F 47.8 °F 29.6 in South 18.3 mph 28.9 mph 88% 0.14 in 0 W/m2
07:31 51.4 °F 48.6 °F 29.6 in South 14.5 mph 26.6 mph 90% 0.14 in 0 W/m2
07:36 51.3 °F 48.9 °F 29.6 in South 11.4 mph 26.6 mph 92% 0.14 in 0 W/m2
07:41 51.3 °F 49.6 °F 29.6 in South 13 mph 26.6 mph 94% 0.15 in 0 W/m2
07:46 51.1 °F 49.5 °F 29.6 in South 13 mph 28.2 mph 94% 0.18 in 0 W/m2
07:51 50.7 °F 49.3 °F 29.6 in South 15.2 mph 28.2 mph 95% 0.2 in 0 W/m2
07:56 51.1 °F 50 °F 29.6 in SSE 11.4 mph 28.9 mph 96% 0.24 in 0 W/m2
08:01 50.4 °F 49.3 °F 29.6 in SSE 11.4 mph 28.9 mph 96% 0.21 in 0 W/m2
08:06 51.1 °F 50 °F 29.6 in South 18.3 mph 28.9 mph 96% 0.2 in 0 W/m2
08:11 52 °F 50 °F 29.6 in South 16.8 mph 28.9 mph 93% 0.19 in 2 W/m2
08:16 52.5 °F 50 °F 29.6 in South 23.5 mph 34.2 mph 91% 0.19 in 0 W/m2
08:21 52.2 °F 49.6 °F 29.6 in South 21.3 mph 37.4 mph 91% 0.2 in 0 W/m2
08:26 52.3 °F 49.8 °F 29.6 in South 23.5 mph 37.4 mph 91% 0.2 in 8 W/m2
08:31 52.5 °F 50 °F 29.6 in South 13.6 mph 41.2 mph 91% 0.19 in 1 W/m2
08:36 52 °F 49.6 °F 29.6 in South 28.2 mph 41.2 mph 92% 0.21 in 0 W/m2
08:41 51.8 °F 49.3 °F 29.6 in SSE 22.8 mph 47.2 mph 91% 0.21 in 3 W/m2
08:46 52.2 °F 48.9 °F 29.6 in South 22.1 mph 47.2 mph 89% 0.19 in 0 W/m2
08:52 52.2 °F 48.9 °F 29.6 in SW 25.9 mph 38 mph 89% 0.13 in 1 W/m2
08:57 52 °F 49.1 °F 29.6 in South 22.8 mph 34.2 mph 90% 0.15 in 1 W/m2
09:02 51.6 °F 49.6 °F 29.6 in South 23.5 mph 41.2 mph 93% 0.21 in 0 W/m2
09:08 52.2 °F 50.2 °F 29.6 in SSE 22.8 mph 41.2 mph 93% 0.25 in 5 W/m2
09:13 52.7 °F 49.8 °F 29.7 in SSE 22.1 mph 47.9 mph 90% 0.34 in 9 W/m2
09:18 52.7 °F 49.6 °F 29.7 in SSE 19 mph 47.9 mph 89% 0.31 in 15 W/m2
09:23 52.9 °F 49.5 °F 29.7 in SSE 21.3 mph 43.4 mph 88% 0.31 in 23 W/m2
09:28 52.5 °F 48.7 °F 29.7 in SSE 29.8 mph 38.7 mph 87% 0.34 in 22 W/m2
09:33 52.7 °F 48.6 °F 29.7 in SSE 19.7 mph 38.7 mph 86% 0.27 in 12 W/m2
09:38 52.5 °F 49.5 °F 29.7 in SSE 22.8 mph 38 mph 89% 0.3 in 20 W/m2
09:43 52.2 °F 49.3 °F 29.7 in SSE 19 mph 35.8 mph 90% 0.31 in 16 W/m2
09:48 52 °F 48.6 °F 29.7 in SSE 16.8 mph 35.8 mph 88% 0.3 in 9 W/m2
09:53 51.6 °F 48.6 °F 29.7 in South 23.5 mph 34.9 mph 89% 0.31 in 10 W/m2
09:58 51.6 °F 48.2 °F 29.7 in South 21.3 mph 40.3 mph 88% 0.31 in 6 W/m2
10:03 51.6 °F 49.1 °F 29.7 in SSE 13 mph 40.3 mph 91% 0.28 in 8 W/m2
10:08 51.6 °F 49.6 °F 29.7 in SSE 19.7 mph 35.8 mph 93% 0.21 in 10 W/m2
10:13 51.6 °F 50 °F 29.7 in South 24.4 mph 38 mph 94% 0.24 in 16 W/m2
10:18 51.6 °F 50 °F 29.7 in South 18.3 mph 38 mph 94% 0.28 in 18 W/m2
10:37 50 °F 48 °F 29.7 in SSE 15.2 mph 30.4 mph 93% 0.34 in 20 W/m2
10:42 50.4 °F 48.7 °F 29.7 in SSE 18.3 mph 31.1 mph 94% 0.34 in 12 W/m2
10:47 50.7 °F 49.1 °F 29.7 in SSE 25.9 mph 45.6 mph 94% 0.34 in 8 W/m2
10:52 50 °F 47.8 °F 29.7 in SSE 19.7 mph 45.6 mph 92% 0.38 in 12 W/m2
10:57 50.2 °F 48.2 °F 29.7 in South 18.3 mph 41.2 mph 93% 0.35 in 16 W/m2
11:02 50.4 °F 48.7 °F 29.7 in South 19.7 mph 32.7 mph 94% 0.38 in 12 W/m2
11:07 50 °F 48.4 °F 29.7 in South 19.7 mph 34.9 mph 94% 0.4 in 17 W/m2
11:12 49.8 °F 48.2 °F 29.7 in South 20.6 mph 36.5 mph 94% 0.4 in 16 W/m2
11:17 50.9 °F 49.3 °F 29.7 in SSE 22.1 mph 36.5 mph 94% 0.38 in 20 W/m2
11:22 50.5 °F 48.4 °F 29.7 in SSE 21.3 mph 37.4 mph 92% 0.38 in 20 W/m2
11:27 50.2 °F 47.1 °F 29.7 in SSE 21.3 mph 37.4 mph 89% 0.37 in 17 W/m2
11:32 50.2 °F 47.1 °F 29.7 in SSE 15.9 mph 39.6 mph 89% 0.38 in 10 W/m2
11:37 50.2 °F 47.7 °F 29.8 in SSE 13.6 mph 39.6 mph 91% 0.35 in 11 W/m2
11:42 49.6 °F 47.5 °F 29.7 in SSE 19 mph 31.1 mph 92% 0.35 in 7 W/m2
11:47 49.1 °F 46.6 °F 29.7 in South 11.4 mph 26.6 mph 91% 0.33 in 4 W/m2
11:52 49.1 °F 46.9 °F 29.7 in South 8.3 mph 25.1 mph 92% 0.33 in 8 W/m2
11:57 50.2 °F 48.2 °F 29.7 in South 20.6 mph 31.1 mph 93% 0.34 in 4 W/m2
12:02 51.1 °F 49.1 °F 29.7 in South 28.9 mph 39.6 mph 93% 0.34 in 8 W/m2
12:07 50.9 °F 48.7 °F 29.7 in South 24.4 mph 39.6 mph 92% 0.34 in 6 W/m2
12:12 50.7 °F 48.7 °F 29.7 in South 19.7 mph 39.6 mph 93% 0.34 in 4 W/m2
12:17 50.7 °F 48.7 °F 29.7 in South 22.8 mph 34.9 mph 93% 0.39 in 8 W/m2
12:22 50.9 °F 48.9 °F 29.7 in South 23.5 mph 38 mph 93% 0.43 in 17 W/m2
12:27 50.9 °F 48.7 °F 29.7 in South 21.3 mph 39.6 mph 92% 0.45 in 14 W/m2
12:32 50.9 °F 48.7 °F 29.7 in South 24.4 mph 49.4 mph 92% 0.51 in 13 W/m2
12:37 50.9 °F 48.7 °F 29.7 in South 22.1 mph 49.4 mph 92% 0.53 in 8 W/m2
12:42 50.7 °F 48.6 °F 29.7 in South 22.8 mph 39.6 mph 92% 0.52 in 15 W/m2
12:46 50.9 °F 48.7 °F 29.7 in South 20.6 mph 38.7 mph 92% 0.53 in 15 W/m2
12:52 50.9 °F 48.4 °F 29.7 in South 24.4 mph 45 mph 91% 0.54 in 18 W/m2
12:56 50.9 °F 48 °F 29.8 in South 23.5 mph 45 mph 90% 0.53 in 17 W/m2
13:02 50.7 °F 47.3 °F 29.8 in South 22.1 mph 41.8 mph 88% 0.52 in 13 W/m2
13:08 50.5 °F 46.6 °F 29.8 in South 21.3 mph 41.8 mph 86% 0.5 in 12 W/m2
13:12 50.7 °F 46.8 °F 29.8 in SSW 18.3 mph 36.5 mph 86% 0.46 in 20 W/m2
13:18 50.7 °F 46.4 °F 29.8 in South 24.4 mph 39.6 mph 85% 0.44 in 19 W/m2
13:23 50.5 °F 46.2 °F 29.8 in South 19 mph 39.6 mph 85% 0.41 in 23 W/m2
13:28 50.5 °F 46.2 °F 29.8 in South 22.1 mph 38.7 mph 85% 0.37 in 24 W/m2
13:33 50.5 °F 45.9 °F 29.8 in South 15.2 mph 35.8 mph 84% 0.32 in 31 W/m2
13:38 50.7 °F 46 °F 29.8 in South 25.1 mph 35.8 mph 84% 0.32 in 19 W/m2
13:43 50.7 °F 45.9 °F 29.8 in South 20.6 mph 40.3 mph 83% 0.32 in 22 W/m2
13:48 50.5 °F 45.7 °F 29.8 in South 18.3 mph 40.3 mph 83% 0.32 in 28 W/m2
13:53 50.7 °F 45.9 °F 29.8 in South 22.8 mph 35.8 mph 83% 0.3 in 31 W/m2
13:58 50.5 °F 45.7 °F 29.8 in South 23.5 mph 37.4 mph 83% 0.28 in 21 W/m2
14:03 50.4 °F 45.3 °F 29.8 in South 19 mph 37.4 mph 83% 0.27 in 20 W/m2
14:08 50.2 °F 45.5 °F 29.8 in South 19.7 mph 33.6 mph 84% 0.27 in 20 W/m2
14:13 50 °F 45 °F 29.8 in South 19 mph 33.6 mph 83% 0.27 in 16 W/m2
14:18 49.6 °F 45.3 °F 29.8 in South 21.3 mph 34.9 mph 85% 0.28 in 20 W/m2
14:23 49.8 °F 45.1 °F 29.8 in South 23.5 mph 35.8 mph 84% 0.26 in 21 W/m2
14:27 49.8 °F 45.1 °F 29.8 in South 22.1 mph 35.8 mph 84% 0.26 in 7 W/m2
14:32 50.2 °F 43.9 °F 29.8 in South 19 mph 38.7 mph 79% 0.28 in 13 W/m2
14:38 50.4 °F 43.3 °F 29.8 in South 17.4 mph 38.7 mph 77% 0.28 in 12 W/m2
14:43 50.7 °F 44.8 °F 29.8 in South 21.3 mph 32.7 mph 80% 0.27 in 16 W/m2
14:47 50.9 °F 44.6 °F 29.8 in SSE 22.8 mph 33.6 mph 79% 0.26 in 16 W/m2
14:53 51.3 °F 45 °F 29.8 in SSE 22.1 mph 33.6 mph 79% 0.25 in 7 W/m2
14:58 50.9 °F 45.9 °F 29.8 in South 20.6 mph 36.5 mph 83% 0.26 in 6 W/m2
15:03 50.9 °F 46.2 °F 29.8 in South 18.3 mph 36.5 mph 84% 0.26 in 7 W/m2
15:08 51.3 °F 46.6 °F 29.8 in South 18.3 mph 32 mph 84% 0.24 in 10 W/m2
15:12 51.4 °F 46.6 °F 29.8 in South 15.2 mph 34.2 mph 83% 0.22 in 6 W/m2
15:18 51.6 °F 46 °F 29.8 in South 16.8 mph 34.2 mph 81% 0.19 in 5 W/m2
15:23 51.8 °F 46.2 °F 29.8 in South 22.1 mph 32.7 mph 81% 0.19 in 9 W/m2
15:28 52.2 °F 44.4 °F 29.8 in South 22.1 mph 45.6 mph 75% 0.18 in 14 W/m2
15:32 52.3 °F 44.2 °F 29.8 in South 18.3 mph 45.6 mph 74% 0.14 in 8 W/m2
15:38 52.7 °F 43.2 °F 29.8 in South 22.8 mph 34.2 mph 70% 0.13 in 6 W/m2
15:43 53.1 °F 43.2 °F 29.8 in SSW 25.9 mph 36.5 mph 69% 0.12 in 11 W/m2
15:48 53.1 °F 43.2 °F 29.8 in SSW 27.3 mph 36.5 mph 69% 0.11 in 11 W/m2
15:53 53.2 °F 43.3 °F 29.8 in South 19 mph 37.4 mph 69% 0.09 in 5 W/m2
15:58 52.9 °F 43.3 °F 29.8 in South 18.3 mph 37.4 mph 70% 0.06 in 2 W/m2
16:02 53.1 °F 44.2 °F 29.8 in South 20.6 mph 32 mph 72% 0.05 in 4 W/m2
16:08 53.1 °F 44.6 °F 29.8 in South 18.3 mph 32 mph 73% 0.04 in 9 W/m2
16:13 53.1 °F 45 °F 29.8 in South 19 mph 29.8 mph 74% 0.02 in 6 W/m2
16:18 52.9 °F 44.8 °F 29.8 in South 16.8 mph 29.8 mph 74% 0.02 in 12 W/m2
16:23 52.9 °F 44.8 °F 29.8 in SSE 18.3 mph 28.9 mph 74% 0.01 in 11 W/m2
16:27 52.9 °F 44.4 °F 29.8 in South 23.5 mph 32 mph 73% 0 in 10 W/m2
16:32 52.9 °F 44.8 °F 29.8 in SSW 20.6 mph 32 mph 74% 0 in 9 W/m2
16:38 52.7 °F 45.3 °F 29.8 in SSW 18.3 mph 32 mph 76% 0 in 10 W/m2
16:42 52.5 °F 45.5 °F 29.9 in South 15.9 mph 30.4 mph 77% 0 in 4 W/m2
16:48 52.3 °F 45.3 °F 29.9 in South 15.2 mph 30.4 mph 77% 0 in 1 W/m2
16:53 52.5 °F 45.1 °F 29.9 in South 22.1 mph 28.2 mph 76% 0 in 0 W/m2
16:57 52.9 °F 45.1 °F 29.9 in South 15.9 mph 28.9 mph 75% 0 in 0 W/m2
17:02 52.9 °F 45.1 °F 29.9 in South 19.7 mph 29.8 mph 75% 0 in 0 W/m2
17:08 52.9 °F 45.9 °F 29.9 in South 14.5 mph 29.8 mph 77% 0 in 0 W/m2
17:12 53.1 °F 44.6 °F 29.9 in South 13 mph 32.7 mph 73% 0.01 in 0 W/m2
17:17 53.1 °F 43.9 °F 29.9 in South 15.2 mph 32.7 mph 71% 0.01 in 0 W/m2
17:21 53.1 °F 44.2 °F 29.9 in South 19.7 mph 32 mph 72% 0.01 in 0 W/m2
17:26 53.1 °F 45 °F 29.9 in South 19.7 mph 27.3 mph 74% 0.01 in 0 W/m2
17:31 53.1 °F 45 °F 29.9 in SSW 15.2 mph 28.2 mph 74% 0.01 in 0 W/m2
17:36 52.9 °F 44.8 °F 29.9 in South 21.3 mph 29.8 mph 74% 0.01 in 0 W/m2
17:41 53.1 °F 44.6 °F 29.9 in South 13.6 mph 31.1 mph 73% 0.01 in 0 W/m2
17:46 52.9 °F 44.8 °F 29.9 in South 9.8 mph 31.1 mph 74% 0.01 in 0 W/m2
17:52 52.5 °F 45.5 °F 29.9 in South 16.8 mph 34.2 mph 77% 0.01 in 0 W/m2
17:56 51.6 °F 46.6 °F 29.9 in South 18.3 mph 34.2 mph 83% 0.01 in 0 W/m2
18:01 52 °F 46.8 °F 29.9 in South 15.2 mph 23.5 mph 82% 0.01 in 0 W/m2
18:06 52.3 °F 45 °F 29.9 in South 15.2 mph 27.3 mph 76% 0.01 in 0 W/m2
18:11 52.3 °F 45 °F 29.9 in South 14.5 mph 27.3 mph 76% 0 in 0 W/m2
18:16 52.5 °F 46.9 °F 29.9 in South 15.2 mph 25.9 mph 81% 0 in 0 W/m2
18:21 52 °F 46.8 °F 29.9 in South 13.6 mph 28.2 mph 82% 0 in 0 W/m2
18:27 51.6 °F 47.3 °F 29.9 in South 14.5 mph 28.2 mph 85% 0 in 0 W/m2
18:32 51.6 °F 47.7 °F 29.9 in SSW 13 mph 25.9 mph 86% 0 in 0 W/m2
18:36 52 °F 46.8 °F 29.9 in SSW 22.1 mph 29.8 mph 82% 0 in 0 W/m2
18:41 50.7 °F 46.9 °F 29.9 in South 20.6 mph 30.4 mph 87% 0.01 in 0 W/m2
18:47 50 °F 46.9 °F 29.9 in South 13.6 mph 32.7 mph 89% 0.01 in 0 W/m2
18:51 50 °F 47.1 °F 29.9 in South 16.8 mph 32.7 mph 90% 0.01 in 0 W/m2
18:56 50.5 °F 47.5 °F 29.9 in South 19.7 mph 32.7 mph 89% 0.02 in 0 W/m2
19:01 50.4 °F 46.9 °F 29.9 in SSW 13 mph 32.7 mph 88% 0.02 in 0 W/m2
19:06 50.5 °F 47.5 °F 29.9 in SSW 16.8 mph 32.7 mph 89% 0.02 in 0 W/m2
19:12 50.2 °F 47.1 °F 29.9 in South 15.9 mph 25.9 mph 89% 0.02 in 0 W/m2
19:16 50.2 °F 47.1 °F 29.9 in South 12.1 mph 25.9 mph 89% 0.02 in 0 W/m2
19:21 50.5 °F 47.5 °F 29.9 in South 15.2 mph 30.4 mph 89% 0.02 in 0 W/m2
19:26 50.9 °F 47.1 °F 29.9 in South 13.6 mph 30.4 mph 87% 0.02 in 0 W/m2
19:31 51.1 °F 47.5 °F 29.9 in South 15.9 mph 22.8 mph 87% 0.02 in 0 W/m2
19:36 51.3 °F 47.1 °F 29.9 in South 15.9 mph 25.9 mph 86% 0.02 in 0 W/m2
19:41 51.6 °F 46.9 °F 29.9 in SSW 18.3 mph 25.9 mph 84% 0.01 in 0 W/m2
19:46 50.9 °F 46.2 °F 29.9 in SSW 13 mph 25.1 mph 84% 0.01 in 0 W/m2
19:52 50.9 °F 46.6 °F 29.9 in SSW 13 mph 24.4 mph 85% 0.01 in 0 W/m2
19:56 51.1 °F 46.8 °F 29.9 in SSW 15.9 mph 26.6 mph 85% 0 in 0 W/m2
20:01 51.3 °F 46.6 °F 29.9 in South 15.9 mph 26.6 mph 84% 0 in 0 W/m2
20:06 50.9 °F 46.9 °F 29.9 in South 13 mph 25.9 mph 86% 0.01 in 0 W/m2
20:11 51.1 °F 47.5 °F 29.9 in South 11.4 mph 22.8 mph 87% 0.01 in 0 W/m2
20:16 51.3 °F 47.1 °F 29.9 in South 16.8 mph 26.6 mph 86% 0.01 in 0 W/m2
20:21 51.4 °F 46.8 °F 29.9 in South 15.2 mph 26.6 mph 84% 0.01 in 0 W/m2
20:26 51.6 °F 46.6 °F 29.9 in South 11.4 mph 25.1 mph 83% 0.01 in 0 W/m2
20:31 51.3 °F 46.6 °F 30 in SSW 13 mph 22.8 mph 84% 0.01 in 0 W/m2
20:36 51.3 °F 46.9 °F 30 in SSW 17.4 mph 22.1 mph 85% 0.01 in 0 W/m2
20:41 52 °F 46.8 °F 30 in SSW 16.8 mph 24.4 mph 82% 0.01 in 0 W/m2
20:46 52 °F 45.7 °F 30 in SSW 15.9 mph 26.6 mph 79% 0.01 in 0 W/m2
20:51 52.2 °F 44.4 °F 30 in South 14.5 mph 26.6 mph 75% 0.01 in 0 W/m2
20:56 52.2 °F 45.1 °F 30 in South 9.2 mph 24.4 mph 77% 0.01 in 0 W/m2
21:01 51.8 °F 45.9 °F 30 in South 12.1 mph 24.4 mph 80% 0.01 in 0 W/m2
21:06 51.6 °F 46.2 °F 30 in South 12.1 mph 19 mph 82% 0 in 0 W/m2
21:11 52 °F 46 °F 30 in South 13 mph 22.1 mph 80% 0 in 0 W/m2
21:31 52.2 °F 45.1 °F 30 in SSW 13.6 mph 20.6 mph 77% 0 in 0 W/m2
21:36 52.3 °F 45.7 °F 30 in SSW 11.4 mph 20.6 mph 78% 0 in 0 W/m2
21:41 52.5 °F 46.2 °F 30 in South 15.9 mph 28.2 mph 79% 0 in 0 W/m2
21:46 52.5 °F 45.9 °F 30 in SSW 14.5 mph 28.2 mph 78% 0 in 0 W/m2
21:53 52.3 °F 46.9 °F 30 in South 9.8 mph 25 mph 82% 0 in 0 W/m2
21:58 52 °F 46.9 °F 30 in SSW 10.7 mph 21.3 mph 83% 0 in 0 W/m2
22:04 51.6 °F 46.6 °F 30 in South 15.9 mph 22.1 mph 83% 0 in 0 W/m2
22:08 51.4 °F 46.6 °F 30 in South 14.5 mph 22.1 mph 83% 0 in 0 W/m2
22:13 51.3 °F 46.9 °F 30 in South 13.6 mph 22.1 mph 85% 0 in 0 W/m2
22:19 51.6 °F 46.9 °F 30 in SSW 15.2 mph 27.3 mph 84% 0 in 0 W/m2
22:24 51.4 °F 47.1 °F 30 in SSW 11.4 mph 27.3 mph 85% 0 in 0 W/m2
22:29 51.3 °F 47.1 °F 30 in SSW 11.4 mph 25.9 mph 86% 0 in 0 W/m2
22:34 51.3 °F 47.1 °F 30 in SSW 13.6 mph 19.7 mph 86% 0 in 0 W/m2
22:39 50.9 °F 46.9 °F 30 in SW 13 mph 22.1 mph 86% 0 in 0 W/m2
22:43 50.9 °F 47.1 °F 30 in SW 9.8 mph 22.1 mph 87% 0 in 0 W/m2
22:49 51.4 °F 46.8 °F 30 in South 9.8 mph 21.3 mph 84% 0 in 0 W/m2
22:53 51.4 °F 46.8 °F 30 in SSW 9.8 mph 20.6 mph 84% 0 in 0 W/m2
22:59 51.1 °F 46.4 °F 30 in SSW 11.4 mph 18.3 mph 84% 0 in 0 W/m2
23:04 51.3 °F 46.6 °F 30 in South 13 mph 24.4 mph 84% 0 in 0 W/m2
23:09 51.6 °F 46.9 °F 30 in SSW 9.8 mph 24.4 mph 84% 0 in 0 W/m2
23:14 51.3 °F 46.9 °F 30 in SSW 8.3 mph 19 mph 85% 0 in 0 W/m2
23:19 51.1 °F 46.8 °F 30 in SSW 13 mph 18.3 mph 85% 0 in 0 W/m2
23:24 51.1 °F 46.9 °F 30 in SSW 13 mph 24.4 mph 86% 0 in 0 W/m2
23:29 50.9 °F 47.1 °F 30 in SSW 9.2 mph 24.4 mph 87% 0 in 0 W/m2
23:33 50.4 °F 47.1 °F 30 in SW 12.1 mph 25.1 mph 89% 0 in 0 W/m2
23:39 50.2 °F 47.5 °F 30 in SW 16.8 mph 26.6 mph 90% 0 in 0 W/m2
23:44 49.8 °F 47.3 °F 30 in South 9.2 mph 26.6 mph 91% 0.01 in 0 W/m2
23:49 50.4 °F 47.5 °F 30 in SSW 9.2 mph 22.8 mph 90% 0.01 in 0 W/m2
23:54 50.5 °F 47.7 °F 30 in SSW 9.8 mph 20.6 mph 90% 0.01 in 0 W/m2
23:59 50.4 °F 47.5 °F 30 in SSW 6.9 mph 18.3 mph 90% 0.01 in 0 W/m2
Northern Hawkes Bay. New Zealand Historic Data
Compliments of Weather Underground - 2.25 mb